This is the latest recevied weather packets stored in our database for station/object E27EKO-13. If no packets are shown the sender has not sent any weather packets the latest 10 day(s).
| Time | Temp. | Humidity | Pressure | Rain* | Wind** | Luminosity | Snow |
|---|---|---|---|---|---|---|---|
| 1777173632 | 37.78° C | 51% | 1010 hPa | - | - | 0 W/m² | - |
| 1777173311 | 38.33° C | 51% | 1010 hPa | - | - | 0 W/m² | - |
| 1777172988 | 38.33° C | 51% | 1010 hPa | - | - | 0 W/m² | - |
| 1777172666 | 38.89° C | 50% | 1010 hPa | - | - | 0 W/m² | - |
| 1777172344 | 39.44° C | 49% | 1010 hPa | - | - | 0 W/m² | - |
| 1777172022 | 40° C | 47% | 1010 hPa | - | - | 0 W/m² | - |
| 1777171700 | 40.56° C | 46% | 1010 hPa | - | - | 0 W/m² | - |
| 1777171378 | 41.11° C | 46% | 1010 hPa | - | - | 0 W/m² | - |
| 1777171056 | 40.56° C | 46% | 1010 hPa | - | - | 0 W/m² | - |
| 1777170936 | 40.56° C | 46% | 1010 hPa | - | - | 0 W/m² | - |
| 1777170660 | 40.56° C | 47% | 1010 hPa | - | - | 0 W/m² | - |
| 1777170338 | 40° C | 48% | 1010 hPa | - | - | 0 W/m² | - |
| 1777170016 | 40° C | 47% | 1010 hPa | - | - | 0 W/m² | - |
| 1777166764 | 40.56° C | 47% | 1010 hPa | - | - | 0 W/m² | - |
| 1777166442 | 42.78° C | 44% | 1010 hPa | - | - | 0 W/m² | - |
| 1777166120 | 43.89° C | 42% | 1010 hPa | - | - | 0 W/m² | - |
| 1777165798 | 43.33° C | 43% | 1010 hPa | - | - | 0 W/m² | - |
| 1777165476 | 42.78° C | 44% | 1010 hPa | - | - | 0 W/m² | - |
| 1777165154 | 42.22° C | 46% | 1009 hPa | - | - | 0 W/m² | - |
| 1777164832 | 40.56° C | 50% | 1009 hPa | - | - | 0 W/m² | - |
| 1777164510 | 39.44° C | 52% | 1009 hPa | - | - | 0 W/m² | - |
| 1777164407 | 39.44° C | 52% | 1009 hPa | - | - | 0 W/m² | - |
| 1777164085 | 38.33° C | 56% | 1009 hPa | - | - | 0 W/m² | - |
| 1777163763 | 36.67° C | 59% | 1009 hPa | - | - | 0 W/m² | - |
| 1777163441 | 36.11° C | 61% | 1009 hPa | - | - | 0 W/m² | - |
* Rain since midnight (hover to see other rain measurements)
** Current wind speed in m/s (hover to see current wind gust speed)